sensor_id;sensor_type;location;lat;lon;timestamp;P1;durP1;ratioP1;P2;durP2;ratioP2
948;SDS011;461;51.436;7.312;2024-03-07T00:02:39;58.27;;;27.67;;
948;SDS011;461;51.436;7.312;2024-03-07T00:05:09;45.77;;;26.50;;
948;SDS011;461;51.436;7.312;2024-03-07T00:07:35;49.23;;;26.53;;
948;SDS011;461;51.436;7.312;2024-03-07T00:10:02;53.93;;;25.70;;
948;SDS011;461;51.436;7.312;2024-03-07T00:12:29;44.90;;;24.30;;
948;SDS011;461;51.436;7.312;2024-03-07T00:14:55;43.87;;;24.17;;
948;SDS011;461;51.436;7.312;2024-03-07T00:17:21;46.67;;;28.10;;
948;SDS011;461;51.436;7.312;2024-03-07T00:19:48;61.47;;;27.70;;
948;SDS011;461;51.436;7.312;2024-03-07T00:22:17;43.93;;;26.93;;
948;SDS011;461;51.436;7.312;2024-03-07T00:24:43;49.17;;;26.80;;
948;SDS011;461;51.436;7.312;2024-03-07T00:27:12;51.27;;;27.57;;
948;SDS011;461;51.436;7.312;2024-03-07T00:29:39;49.20;;;25.10;;
948;SDS011;461;51.436;7.312;2024-03-07T00:32:05;49.90;;;25.10;;
948;SDS011;461;51.436;7.312;2024-03-07T00:34:32;43.03;;;23.27;;
948;SDS011;461;51.436;7.312;2024-03-07T00:36:59;52.73;;;25.93;;
948;SDS011;461;51.436;7.312;2024-03-07T00:39:25;44.90;;;25.80;;
948;SDS011;461;51.436;7.312;2024-03-07T00:41:51;48.87;;;25.27;;
948;SDS011;461;51.436;7.312;2024-03-07T00:44:17;42.53;;;25.33;;
948;SDS011;461;51.436;7.312;2024-03-07T00:46:42;49.33;;;25.13;;
948;SDS011;461;51.436;7.312;2024-03-07T00:49:08;46.87;;;27.67;;
948;SDS011;461;51.436;7.312;2024-03-07T00:51:34;42.93;;;24.10;;
948;SDS011;461;51.436;7.312;2024-03-07T00:54:00;50.50;;;26.07;;
948;SDS011;461;51.436;7.312;2024-03-07T00:56:26;48.73;;;24.13;;
948;SDS011;461;51.436;7.312;2024-03-07T00:58:53;52.13;;;25.73;;
948;SDS011;461;51.436;7.312;2024-03-07T01:01:19;47.10;;;25.03;;
948;SDS011;461;51.436;7.312;2024-03-07T01:03:45;50.97;;;27.50;;
948;SDS011;461;51.436;7.312;2024-03-07T01:06:11;43.80;;;24.40;;
948;SDS011;461;51.436;7.312;2024-03-07T01:08:37;37.53;;;22.20;;
948;SDS011;461;51.436;7.312;2024-03-07T01:11:04;44.23;;;23.90;;
948;SDS011;461;51.436;7.312;2024-03-07T01:13:37;40.13;;;22.80;;
948;SDS011;461;51.436;7.312;2024-03-07T01:16:03;49.33;;;25.67;;
948;SDS011;461;51.436;7.312;2024-03-07T01:18:30;59.77;;;25.43;;
948;SDS011;461;51.436;7.312;2024-03-07T01:20:58;54.63;;;25.53;;
948;SDS011;461;51.436;7.312;2024-03-07T01:23:27;97.73;;;25.70;;
948;SDS011;461;51.436;7.312;2024-03-07T01:25:55;51.70;;;24.70;;
948;SDS011;461;51.436;7.312;2024-03-07T01:28:21;91.93;;;26.27;;
948;SDS011;461;51.436;7.312;2024-03-07T01:30:48;91.07;;;27.93;;
948;SDS011;461;51.436;7.312;2024-03-07T01:33:18;79.93;;;27.33;;
948;SDS011;461;51.436;7.312;2024-03-07T01:35:44;158.37;;;30.60;;
948;SDS011;461;51.436;7.312;2024-03-07T01:38:10;113.37;;;28.87;;
948;SDS011;461;51.436;7.312;2024-03-07T01:40:39;141.57;;;28.80;;
948;SDS011;461;51.436;7.312;2024-03-07T01:43:05;103.63;;;26.80;;
948;SDS011;461;51.436;7.312;2024-03-07T01:45:32;80.33;;;24.33;;
948;SDS011;461;51.436;7.312;2024-03-07T01:47:57;182.73;;;32.17;;
948;SDS011;461;51.436;7.312;2024-03-07T01:50:24;123.17;;;28.23;;
948;SDS011;461;51.436;7.312;2024-03-07T01:52:50;288.70;;;37.50;;
948;SDS011;461;51.436;7.312;2024-03-07T01:55:16;308.47;;;39.70;;
948;SDS011;461;51.436;7.312;2024-03-07T01:57:43;119.13;;;26.07;;
948;SDS011;461;51.436;7.312;2024-03-07T02:00:10;62.47;;;24.80;;
948;SDS011;461;51.436;7.312;2024-03-07T02:02:37;104.67;;;26.80;;
948;SDS011;461;51.436;7.312;2024-03-07T02:05:03;105.73;;;26.13;;
948;SDS011;461;51.436;7.312;2024-03-07T02:07:31;60.63;;;23.73;;
948;SDS011;461;51.436;7.312;2024-03-07T02:10:00;169.17;;;30.37;;
948;SDS011;461;51.436;7.312;2024-03-07T02:12:27;81.00;;;24.37;;
948;SDS011;461;51.436;7.312;2024-03-07T02:14:58;73.67;;;23.33;;
948;SDS011;461;51.436;7.312;2024-03-07T02:17:24;173.67;;;30.70;;
948;SDS011;461;51.436;7.312;2024-03-07T02:19:53;295.57;;;35.23;;
948;SDS011;461;51.436;7.312;2024-03-07T02:22:19;89.87;;;25.37;;
948;SDS011;461;51.436;7.312;2024-03-07T02:24:45;158.53;;;28.00;;
948;SDS011;461;51.436;7.312;2024-03-07T02:27:11;242.87;;;36.93;;
948;SDS011;461;51.436;7.312;2024-03-07T02:29:39;334.87;;;40.67;;
948;SDS011;461;51.436;7.312;2024-03-07T02:32:06;286.97;;;36.63;;
948;SDS011;461;51.436;7.312;2024-03-07T02:34:31;166.13;;;27.63;;
948;SDS011;461;51.436;7.312;2024-03-07T02:36:57;253.83;;;36.50;;
948;SDS011;461;51.436;7.312;2024-03-07T02:39:23;258.07;;;32.27;;
948;SDS011;461;51.436;7.312;2024-03-07T02:41:51;174.60;;;31.37;;
948;SDS011;461;51.436;7.312;2024-03-07T02:44:17;68.23;;;28.03;;
948;SDS011;461;51.436;7.312;2024-03-07T02:46:43;308.67;;;40.20;;
948;SDS011;461;51.436;7.312;2024-03-07T02:49:09;296.60;;;37.27;;
948;SDS011;461;51.436;7.312;2024-03-07T02:51:35;233.10;;;33.70;;
948;SDS011;461;51.436;7.312;2024-03-07T02:54:01;160.87;;;31.40;;
948;SDS011;461;51.436;7.312;2024-03-07T02:56:30;130.63;;;27.77;;
948;SDS011;461;51.436;7.312;2024-03-07T02:58:56;210.60;;;31.07;;
948;SDS011;461;51.436;7.312;2024-03-07T03:01:22;70.47;;;24.67;;
948;SDS011;461;51.436;7.312;2024-03-07T03:03:47;391.27;;;44.67;;
948;SDS011;461;51.436;7.312;2024-03-07T03:06:13;69.17;;;26.30;;
948;SDS011;461;51.436;7.312;2024-03-07T03:08:39;72.30;;;24.93;;
948;SDS011;461;51.436;7.312;2024-03-07T03:11:05;83.10;;;28.13;;
948;SDS011;461;51.436;7.312;2024-03-07T03:13:34;112.73;;;28.33;;
948;SDS011;461;51.436;7.312;2024-03-07T03:16:03;224.10;;;32.83;;
948;SDS011;461;51.436;7.312;2024-03-07T03:18:32;117.27;;;29.07;;
948;SDS011;461;51.436;7.312;2024-03-07T03:20:59;99.40;;;29.17;;
948;SDS011;461;51.436;7.312;2024-03-07T03:23:31;82.00;;;27.60;;
948;SDS011;461;51.436;7.312;2024-03-07T03:25:57;204.90;;;34.67;;
948;SDS011;461;51.436;7.312;2024-03-07T03:28:24;86.60;;;27.67;;
948;SDS011;461;51.436;7.312;2024-03-07T03:30:50;81.77;;;28.10;;
948;SDS011;461;51.436;7.312;2024-03-07T03:33:16;232.73;;;36.57;;
948;SDS011;461;51.436;7.312;2024-03-07T03:35:42;240.27;;;34.93;;
948;SDS011;461;51.436;7.312;2024-03-07T03:38:09;154.60;;;31.20;;
948;SDS011;461;51.436;7.312;2024-03-07T03:40:35;358.03;;;42.17;;
948;SDS011;461;51.436;7.312;2024-03-07T03:43:01;101.50;;;29.00;;
948;SDS011;461;51.436;7.312;2024-03-07T03:45:27;247.67;;;35.63;;
948;SDS011;461;51.436;7.312;2024-03-07T03:47:53;118.33;;;31.40;;
948;SDS011;461;51.436;7.312;2024-03-07T03:50:19;197.43;;;31.73;;
948;SDS011;461;51.436;7.312;2024-03-07T03:52:44;109.50;;;28.70;;
948;SDS011;461;51.436;7.312;2024-03-07T03:55:10;198.97;;;33.87;;
948;SDS011;461;51.436;7.312;2024-03-07T03:57:40;170.73;;;32.77;;
948;SDS011;461;51.436;7.312;2024-03-07T04:00:08;132.53;;;31.03;;
948;SDS011;461;51.436;7.312;2024-03-07T04:02:40;87.40;;;27.23;;
948;SDS011;461;51.436;7.312;2024-03-07T04:05:13;408.37;;;43.40;;
948;SDS011;461;51.436;7.312;2024-03-07T04:07:40;85.47;;;28.30;;
948;SDS011;461;51.436;7.312;2024-03-07T04:10:10;151.50;;;30.87;;
948;SDS011;461;51.436;7.312;2024-03-07T04:12:37;110.77;;;28.77;;
948;SDS011;461;51.436;7.312;2024-03-07T04:15:05;67.53;;;25.37;;
948;SDS011;461;51.436;7.312;2024-03-07T04:17:32;113.33;;;27.97;;
948;SDS011;461;51.436;7.312;2024-03-07T04:19:59;85.60;;;28.10;;
948;SDS011;461;51.436;7.312;2024-03-07T04:22:25;202.03;;;34.10;;
948;SDS011;461;51.436;7.312;2024-03-07T04:24:52;188.17;;;35.20;;
948;SDS011;461;51.436;7.312;2024-03-07T04:27:21;109.10;;;29.73;;
948;SDS011;461;51.436;7.312;2024-03-07T04:29:47;67.53;;;26.30;;
948;SDS011;461;51.436;7.312;2024-03-07T04:32:14;223.10;;;37.80;;
948;SDS011;461;51.436;7.312;2024-03-07T04:34:40;161.77;;;29.40;;
948;SDS011;461;51.436;7.312;2024-03-07T04:37:06;129.73;;;26.90;;
948;SDS011;461;51.436;7.312;2024-03-07T04:39:32;286.83;;;34.70;;
948;SDS011;461;51.436;7.312;2024-03-07T04:42:07;188.40;;;29.97;;
948;SDS011;461;51.436;7.312;2024-03-07T04:44:36;192.67;;;31.63;;
948;SDS011;461;51.436;7.312;2024-03-07T04:47:02;158.07;;;31.70;;
948;SDS011;461;51.436;7.312;2024-03-07T04:49:29;146.87;;;28.37;;
948;SDS011;461;51.436;7.312;2024-03-07T04:51:56;147.07;;;28.30;;
948;SDS011;461;51.436;7.312;2024-03-07T04:54:24;215.43;;;32.10;;
948;SDS011;461;51.436;7.312;2024-03-07T04:56:51;91.13;;;23.67;;
948;SDS011;461;51.436;7.312;2024-03-07T04:59:18;124.53;;;24.93;;
948;SDS011;461;51.436;7.312;2024-03-07T05:01:44;97.03;;;24.17;;
948;SDS011;461;51.436;7.312;2024-03-07T05:04:14;414.73;;;41.50;;
948;SDS011;461;51.436;7.312;2024-03-07T05:06:40;125.10;;;27.53;;
948;SDS011;461;51.436;7.312;2024-03-07T05:09:08;174.07;;;30.00;;
948;SDS011;461;51.436;7.312;2024-03-07T05:11:38;105.20;;;26.03;;
948;SDS011;461;51.436;7.312;2024-03-07T05:14:04;145.13;;;27.80;;
948;SDS011;461;51.436;7.312;2024-03-07T05:16:30;66.53;;;24.10;;
948;SDS011;461;51.436;7.312;2024-03-07T05:18:59;56.97;;;23.07;;
948;SDS011;461;51.436;7.312;2024-03-07T05:21:28;54.90;;;23.90;;
948;SDS011;461;51.436;7.312;2024-03-07T05:24:06;58.43;;;23.63;;
948;SDS011;461;51.436;7.312;2024-03-07T05:26:35;45.20;;;23.97;;
948;SDS011;461;51.436;7.312;2024-03-07T05:29:07;87.53;;;29.67;;
948;SDS011;461;51.436;7.312;2024-03-07T05:31:34;41.00;;;22.93;;
948;SDS011;461;51.436;7.312;2024-03-07T05:34:01;50.80;;;25.27;;
948;SDS011;461;51.436;7.312;2024-03-07T05:36:33;245.20;;;32.33;;
948;SDS011;461;51.436;7.312;2024-03-07T05:38:59;87.73;;;23.93;;
948;SDS011;461;51.436;7.312;2024-03-07T05:41:28;62.87;;;21.77;;
948;SDS011;461;51.436;7.312;2024-03-07T05:43:55;150.87;;;30.20;;
948;SDS011;461;51.436;7.312;2024-03-07T05:46:21;199.30;;;28.23;;
948;SDS011;461;51.436;7.312;2024-03-07T05:48:48;63.80;;;23.63;;
948;SDS011;461;51.436;7.312;2024-03-07T05:51:17;251.47;;;35.17;;
948;SDS011;461;51.436;7.312;2024-03-07T05:53:43;125.67;;;25.47;;
948;SDS011;461;51.436;7.312;2024-03-07T05:56:09;123.60;;;25.77;;
948;SDS011;461;51.436;7.312;2024-03-07T05:58:35;198.13;;;30.80;;
948;SDS011;461;51.436;7.312;2024-03-07T06:01:00;108.97;;;25.53;;
948;SDS011;461;51.436;7.312;2024-03-07T06:03:26;98.87;;;22.10;;
948;SDS011;461;51.436;7.312;2024-03-07T06:05:52;70.93;;;22.87;;
948;SDS011;461;51.436;7.312;2024-03-07T06:08:19;64.97;;;23.60;;
948;SDS011;461;51.436;7.312;2024-03-07T06:10:46;115.07;;;25.30;;
948;SDS011;461;51.436;7.312;2024-03-07T06:13:13;136.10;;;28.50;;
948;SDS011;461;51.436;7.312;2024-03-07T06:15:43;121.47;;;24.17;;
948;SDS011;461;51.436;7.312;2024-03-07T06:18:09;153.27;;;28.63;;
948;SDS011;461;51.436;7.312;2024-03-07T06:20:42;74.60;;;23.80;;
948;SDS011;461;51.436;7.312;2024-03-07T06:23:09;73.30;;;25.17;;
948;SDS011;461;51.436;7.312;2024-03-07T06:25:37;158.53;;;27.30;;
948;SDS011;461;51.436;7.312;2024-03-07T06:28:12;52.20;;;22.10;;
948;SDS011;461;51.436;7.312;2024-03-07T06:30:39;101.47;;;26.40;;
948;SDS011;461;51.436;7.312;2024-03-07T06:33:06;238.53;;;33.43;;
948;SDS011;461;51.436;7.312;2024-03-07T06:35:32;278.70;;;33.10;;
948;SDS011;461;51.436;7.312;2024-03-07T06:38:05;373.60;;;44.63;;
948;SDS011;461;51.436;7.312;2024-03-07T06:40:35;201.13;;;32.23;;
948;SDS011;461;51.436;7.312;2024-03-07T06:43:01;108.87;;;27.00;;
948;SDS011;461;51.436;7.312;2024-03-07T06:45:31;178.50;;;30.90;;
948;SDS011;461;51.436;7.312;2024-03-07T06:47:58;214.17;;;33.33;;
948;SDS011;461;51.436;7.312;2024-03-07T06:50:24;371.20;;;38.23;;
948;SDS011;461;51.436;7.312;2024-03-07T06:52:49;174.10;;;29.57;;
948;SDS011;461;51.436;7.312;2024-03-07T06:55:15;142.83;;;29.40;;
948;SDS011;461;51.436;7.312;2024-03-07T06:57:42;147.87;;;30.23;;
948;SDS011;461;51.436;7.312;2024-03-07T07:00:09;111.80;;;27.63;;
948;SDS011;461;51.436;7.312;2024-03-07T07:02:39;123.93;;;29.33;;
948;SDS011;461;51.436;7.312;2024-03-07T07:05:09;95.00;;;28.40;;
948;SDS011;461;51.436;7.312;2024-03-07T07:07:49;47.23;;;25.33;;
948;SDS011;461;51.436;7.312;2024-03-07T07:10:16;49.63;;;26.33;;
948;SDS011;461;51.436;7.312;2024-03-07T07:12:46;38.17;;;24.43;;
948;SDS011;461;51.436;7.312;2024-03-07T07:15:16;54.47;;;28.07;;
948;SDS011;461;51.436;7.312;2024-03-07T07:17:46;47.90;;;26.10;;
948;SDS011;461;51.436;7.312;2024-03-07T07:20:14;51.43;;;27.03;;
948;SDS011;461;51.436;7.312;2024-03-07T07:22:43;53.23;;;27.20;;
948;SDS011;461;51.436;7.312;2024-03-07T07:25:22;47.80;;;28.40;;
948;SDS011;461;51.436;7.312;2024-03-07T07:27:50;41.17;;;25.13;;
948;SDS011;461;51.436;7.312;2024-03-07T07:30:17;48.13;;;25.80;;
948;SDS011;461;51.436;7.312;2024-03-07T07:32:45;50.53;;;26.50;;
948;SDS011;461;51.436;7.312;2024-03-07T07:35:11;48.93;;;26.30;;
948;SDS011;461;51.436;7.312;2024-03-07T07:40:07;47.23;;;27.87;;
948;SDS011;461;51.436;7.312;2024-03-07T07:42:35;45.33;;;25.30;;
948;SDS011;461;51.436;7.312;2024-03-07T07:45:08;46.50;;;26.10;;
948;SDS011;461;51.436;7.312;2024-03-07T07:47:41;49.80;;;27.07;;
948;SDS011;461;51.436;7.312;2024-03-07T07:50:08;43.47;;;23.93;;
948;SDS011;461;51.436;7.312;2024-03-07T07:52:44;41.60;;;24.77;;
948;SDS011;461;51.436;7.312;2024-03-07T07:55:15;42.93;;;24.70;;
948;SDS011;461;51.436;7.312;2024-03-07T07:57:54;47.63;;;25.47;;
948;SDS011;461;51.436;7.312;2024-03-07T08:00:23;38.40;;;22.40;;
948;SDS011;461;51.436;7.312;2024-03-07T08:02:54;44.93;;;25.00;;
948;SDS011;461;51.436;7.312;2024-03-07T08:05:21;46.83;;;25.60;;
948;SDS011;461;51.436;7.312;2024-03-07T08:07:52;37.67;;;24.07;;
948;SDS011;461;51.436;7.312;2024-03-07T08:10:20;47.93;;;25.33;;
948;SDS011;461;51.436;7.312;2024-03-07T08:12:48;36.90;;;22.53;;
948;SDS011;461;51.436;7.312;2024-03-07T08:15:17;46.70;;;25.23;;
948;SDS011;461;51.436;7.312;2024-03-07T08:17:43;36.13;;;24.10;;
948;SDS011;461;51.436;7.312;2024-03-07T08:20:17;44.07;;;25.27;;
948;SDS011;461;51.436;7.312;2024-03-07T08:22:44;42.73;;;24.90;;
948;SDS011;461;51.436;7.312;2024-03-07T08:25:13;35.17;;;22.90;;
948;SDS011;461;51.436;7.312;2024-03-07T08:27:42;44.60;;;23.77;;
948;SDS011;461;51.436;7.312;2024-03-07T08:30:10;45.40;;;25.03;;
948;SDS011;461;51.436;7.312;2024-03-07T08:32:43;49.67;;;26.57;;
948;SDS011;461;51.436;7.312;2024-03-07T08:35:10;44.30;;;26.07;;
948;SDS011;461;51.436;7.312;2024-03-07T08:37:40;42.53;;;24.97;;
948;SDS011;461;51.436;7.312;2024-03-07T08:40:10;37.03;;;23.77;;
948;SDS011;461;51.436;7.312;2024-03-07T08:42:55;40.50;;;22.63;;
948;SDS011;461;51.436;7.312;2024-03-07T08:45:22;37.60;;;22.20;;
948;SDS011;461;51.436;7.312;2024-03-07T08:47:49;39.07;;;22.83;;
948;SDS011;461;51.436;7.312;2024-03-07T08:50:17;37.50;;;21.30;;
948;SDS011;461;51.436;7.312;2024-03-07T08:52:47;31.93;;;20.77;;
948;SDS011;461;51.436;7.312;2024-03-07T08:55:15;29.57;;;19.97;;
948;SDS011;461;51.436;7.312;2024-03-07T08:57:44;36.60;;;22.23;;
948;SDS011;461;51.436;7.312;2024-03-07T09:00:11;32.63;;;21.53;;
948;SDS011;461;51.436;7.312;2024-03-07T09:02:47;35.87;;;20.63;;
948;SDS011;461;51.436;7.312;2024-03-07T09:05:22;36.50;;;20.47;;
948;SDS011;461;51.436;7.312;2024-03-07T09:07:53;31.27;;;19.97;;
948;SDS011;461;51.436;7.312;2024-03-07T09:10:20;31.23;;;19.53;;
948;SDS011;461;51.436;7.312;2024-03-07T09:12:47;33.80;;;21.50;;
948;SDS011;461;51.436;7.312;2024-03-07T09:15:15;37.33;;;19.93;;
948;SDS011;461;51.436;7.312;2024-03-07T09:17:46;35.17;;;21.60;;
948;SDS011;461;51.436;7.312;2024-03-07T09:20:12;32.47;;;20.40;;
948;SDS011;461;51.436;7.312;2024-03-07T09:22:45;32.97;;;18.70;;
948;SDS011;461;51.436;7.312;2024-03-07T09:25:12;29.53;;;17.53;;
948;SDS011;461;51.436;7.312;2024-03-07T09:27:41;29.33;;;18.80;;
948;SDS011;461;51.436;7.312;2024-03-07T09:30:17;29.87;;;19.10;;
948;SDS011;461;51.436;7.312;2024-03-07T09:32:49;32.47;;;19.30;;
948;SDS011;461;51.436;7.312;2024-03-07T09:35:16;30.97;;;18.47;;
948;SDS011;461;51.436;7.312;2024-03-07T09:37:43;29.80;;;18.97;;
948;SDS011;461;51.436;7.312;2024-03-07T09:40:09;30.57;;;20.07;;
948;SDS011;461;51.436;7.312;2024-03-07T09:42:41;37.80;;;21.13;;
948;SDS011;461;51.436;7.312;2024-03-07T09:45:16;26.53;;;18.20;;
948;SDS011;461;51.436;7.312;2024-03-07T09:47:45;31.87;;;18.30;;
948;SDS011;461;51.436;7.312;2024-03-07T09:50:16;29.87;;;18.00;;
948;SDS011;461;51.436;7.312;2024-03-07T09:52:49;28.10;;;17.93;;
948;SDS011;461;51.436;7.312;2024-03-07T09:55:20;28.43;;;18.13;;
948;SDS011;461;51.436;7.312;2024-03-07T09:57:47;27.20;;;16.50;;
948;SDS011;461;51.436;7.312;2024-03-07T10:00:17;29.50;;;17.73;;
948;SDS011;461;51.436;7.312;2024-03-07T10:02:48;28.17;;;16.77;;
948;SDS011;461;51.436;7.312;2024-03-07T10:05:19;26.70;;;15.40;;
948;SDS011;461;51.436;7.312;2024-03-07T10:07:50;24.37;;;17.83;;
948;SDS011;461;51.436;7.312;2024-03-07T10:10:19;27.27;;;17.63;;
948;SDS011;461;51.436;7.312;2024-03-07T10:12:50;23.90;;;15.20;;
948;SDS011;461;51.436;7.312;2024-03-07T10:18:02;25.57;;;16.00;;
948;SDS011;461;51.436;7.312;2024-03-07T10:20:44;28.43;;;17.33;;
948;SDS011;461;51.436;7.312;2024-03-07T10:23:10;27.70;;;16.77;;
948;SDS011;461;51.436;7.312;2024-03-07T10:28:05;23.80;;;16.33;;
948;SDS011;461;51.436;7.312;2024-03-07T10:30:40;30.60;;;18.33;;
948;SDS011;461;51.436;7.312;2024-03-07T10:33:06;19.50;;;14.97;;
948;SDS011;461;51.436;7.312;2024-03-07T10:38:07;27.33;;;17.97;;
948;SDS011;461;51.436;7.312;2024-03-07T10:40:38;24.33;;;16.13;;
948;SDS011;461;51.436;7.312;2024-03-07T10:43:11;30.20;;;16.60;;
948;SDS011;461;51.436;7.312;2024-03-07T10:45:46;24.57;;;16.87;;
948;SDS011;461;51.436;7.312;2024-03-07T10:48:14;29.43;;;18.33;;
948;SDS011;461;51.436;7.312;2024-03-07T10:53:32;27.10;;;18.03;;
948;SDS011;461;51.436;7.312;2024-03-07T11:01:49;24.43;;;15.67;;
948;SDS011;461;51.436;7.312;2024-03-07T11:04:33;23.47;;;16.13;;
948;SDS011;461;51.436;7.312;2024-03-07T11:07:00;23.67;;;16.23;;
948;SDS011;461;51.436;7.312;2024-03-07T11:09:28;20.57;;;15.50;;
948;SDS011;461;51.436;7.312;2024-03-07T11:11:58;21.57;;;15.80;;
948;SDS011;461;51.436;7.312;2024-03-07T11:14:25;27.23;;;17.47;;
948;SDS011;461;51.436;7.312;2024-03-07T11:16:53;23.10;;;15.60;;
948;SDS011;461;51.436;7.312;2024-03-07T11:21:56;21.00;;;14.73;;
948;SDS011;461;51.436;7.312;2024-03-07T11:24:27;19.47;;;15.50;;
948;SDS011;461;51.436;7.312;2024-03-07T11:26:56;24.10;;;17.10;;
948;SDS011;461;51.436;7.312;2024-03-07T11:32:18;21.10;;;15.70;;
948;SDS011;461;51.436;7.312;2024-03-07T11:34:54;24.90;;;16.40;;
948;SDS011;461;51.436;7.312;2024-03-07T11:37:36;22.00;;;17.20;;
948;SDS011;461;51.436;7.312;2024-03-07T11:42:50;26.33;;;18.17;;
948;SDS011;461;51.436;7.312;2024-03-07T11:45:18;23.63;;;15.37;;
948;SDS011;461;51.436;7.312;2024-03-07T11:47:57;28.70;;;16.30;;
948;SDS011;461;51.436;7.312;2024-03-07T11:50:44;26.10;;;16.83;;
948;SDS011;461;51.436;7.312;2024-03-07T11:53:14;22.27;;;15.10;;
948;SDS011;461;51.436;7.312;2024-03-07T11:55:40;20.80;;;14.90;;
948;SDS011;461;51.436;7.312;2024-03-07T11:58:24;20.90;;;14.47;;
948;SDS011;461;51.436;7.312;2024-03-07T12:00:51;24.07;;;17.33;;
948;SDS011;461;51.436;7.312;2024-03-07T12:03:18;22.27;;;16.93;;
948;SDS011;461;51.436;7.312;2024-03-07T12:05:47;26.73;;;16.93;;
948;SDS011;461;51.436;7.312;2024-03-07T12:08:13;24.40;;;15.70;;
948;SDS011;461;51.436;7.312;2024-03-07T12:10:40;19.67;;;14.50;;
948;SDS011;461;51.436;7.312;2024-03-07T12:13:09;25.50;;;14.87;;
948;SDS011;461;51.436;7.312;2024-03-07T12:15:40;22.70;;;16.80;;
948;SDS011;461;51.436;7.312;2024-03-07T12:18:07;21.27;;;13.83;;
948;SDS011;461;51.436;7.312;2024-03-07T12:20:37;25.88;;;17.23;;
948;SDS011;461;51.436;7.312;2024-03-07T12:23:04;27.57;;;16.07;;
948;SDS011;461;51.436;7.312;2024-03-07T12:25:34;18.83;;;13.50;;
948;SDS011;461;51.436;7.312;2024-03-07T12:28:08;23.33;;;14.50;;
948;SDS011;461;51.436;7.312;2024-03-07T12:30:49;19.27;;;13.37;;
948;SDS011;461;51.436;7.312;2024-03-07T12:33:18;20.00;;;15.20;;
948;SDS011;461;51.436;7.312;2024-03-07T12:35:48;19.90;;;14.50;;
948;SDS011;461;51.436;7.312;2024-03-07T12:38:17;23.27;;;14.50;;
948;SDS011;461;51.436;7.312;2024-03-07T12:41:01;21.60;;;15.00;;
948;SDS011;461;51.436;7.312;2024-03-07T12:43:32;23.33;;;15.50;;
948;SDS011;461;51.436;7.312;2024-03-07T12:45:58;22.27;;;13.10;;
948;SDS011;461;51.436;7.312;2024-03-07T12:48:24;22.57;;;14.53;;
948;SDS011;461;51.436;7.312;2024-03-07T12:50:50;22.37;;;14.73;;
948;SDS011;461;51.436;7.312;2024-03-07T12:53:23;22.70;;;14.63;;
948;SDS011;461;51.436;7.312;2024-03-07T12:55:51;20.57;;;12.90;;
948;SDS011;461;51.436;7.312;2024-03-07T13:00:57;21.30;;;14.40;;
948;SDS011;461;51.436;7.312;2024-03-07T13:03:30;20.70;;;12.23;;
948;SDS011;461;51.436;7.312;2024-03-07T13:06:00;20.70;;;13.60;;
948;SDS011;461;51.436;7.312;2024-03-07T13:08:29;16.83;;;12.10;;
948;SDS011;461;51.436;7.312;2024-03-07T13:11:16;20.50;;;14.70;;
948;SDS011;461;51.436;7.312;2024-03-07T13:13:50;19.33;;;12.87;;
948;SDS011;461;51.436;7.312;2024-03-07T13:16:20;18.23;;;13.97;;
948;SDS011;461;51.436;7.312;2024-03-07T13:18:56;18.50;;;11.97;;
948;SDS011;461;51.436;7.312;2024-03-07T13:21:30;15.93;;;11.53;;
948;SDS011;461;51.436;7.312;2024-03-07T13:24:02;15.90;;;12.00;;
948;SDS011;461;51.436;7.312;2024-03-07T13:26:38;15.90;;;10.60;;
948;SDS011;461;51.436;7.312;2024-03-07T13:29:08;17.40;;;11.73;;
948;SDS011;461;51.436;7.312;2024-03-07T13:31:37;13.70;;;10.50;;
948;SDS011;461;51.436;7.312;2024-03-07T13:37:31;17.97;;;11.97;;
948;SDS011;461;51.436;7.312;2024-03-07T13:56:44;17.20;;;12.20;;
948;SDS011;461;51.436;7.312;2024-03-07T14:36:34;10.03;;;7.90;;
948;SDS011;461;51.436;7.312;2024-03-07T14:39:48;11.07;;;7.50;;
948;SDS011;461;51.436;7.312;2024-03-07T14:42:20;10.50;;;7.50;;
948;SDS011;461;51.436;7.312;2024-03-07T14:44:45;13.03;;;7.90;;
948;SDS011;461;51.436;7.312;2024-03-07T14:47:13;19.10;;;9.20;;
948;SDS011;461;51.436;7.312;2024-03-07T14:49:47;13.80;;;8.70;;
948;SDS011;461;51.436;7.312;2024-03-07T14:52:31;14.83;;;8.80;;
948;SDS011;461;51.436;7.312;2024-03-07T14:55:02;16.80;;;8.57;;
948;SDS011;461;51.436;7.312;2024-03-07T15:01:35;12.80;;;9.17;;
948;SDS011;461;51.436;7.312;2024-03-07T15:08:11;15.73;;;10.47;;
948;SDS011;461;51.436;7.312;2024-03-07T15:14:18;20.30;;;11.40;;
948;SDS011;461;51.436;7.312;2024-03-07T15:16:56;14.20;;;9.37;;
948;SDS011;461;51.436;7.312;2024-03-07T15:19:27;14.07;;;10.27;;
948;SDS011;461;51.436;7.312;2024-03-07T15:21:57;17.53;;;10.93;;
948;SDS011;461;51.436;7.312;2024-03-07T15:27:15;21.23;;;11.30;;
948;SDS011;461;51.436;7.312;2024-03-07T15:33:12;16.73;;;12.43;;
948;SDS011;461;51.436;7.312;2024-03-07T15:35:40;19.00;;;12.37;;
948;SDS011;461;51.436;7.312;2024-03-07T15:38:06;25.97;;;14.37;;
948;SDS011;461;51.436;7.312;2024-03-07T15:51:19;19.43;;;12.47;;
948;SDS011;461;51.436;7.312;2024-03-07T15:54:16;19.43;;;13.10;;
948;SDS011;461;51.436;7.312;2024-03-07T16:04:17;30.07;;;16.53;;
948;SDS011;461;51.436;7.312;2024-03-07T16:10:13;23.50;;;14.70;;
948;SDS011;461;51.436;7.312;2024-03-07T16:13:00;22.90;;;14.63;;
948;SDS011;461;51.436;7.312;2024-03-07T16:15:33;23.83;;;12.03;;
948;SDS011;461;51.436;7.312;2024-03-07T16:18:10;20.17;;;12.97;;
948;SDS011;461;51.436;7.312;2024-03-07T16:20:48;21.33;;;11.67;;
948;SDS011;461;51.436;7.312;2024-03-07T16:23:14;23.53;;;14.00;;
948;SDS011;461;51.436;7.312;2024-03-07T16:26:18;20.80;;;12.83;;
948;SDS011;461;51.436;7.312;2024-03-07T16:28:50;27.70;;;14.47;;
948;SDS011;461;51.436;7.312;2024-03-07T16:31:34;22.70;;;13.30;;
948;SDS011;461;51.436;7.312;2024-03-07T16:34:00;22.97;;;13.27;;
948;SDS011;461;51.436;7.312;2024-03-07T16:36:26;20.00;;;13.13;;
948;SDS011;461;51.436;7.312;2024-03-07T16:38:51;19.60;;;12.97;;
948;SDS011;461;51.436;7.312;2024-03-07T16:41:27;20.40;;;12.13;;
948;SDS011;461;51.436;7.312;2024-03-07T16:43:53;23.63;;;13.93;;
948;SDS011;461;51.436;7.312;2024-03-07T16:46:18;17.90;;;12.00;;
948;SDS011;461;51.436;7.312;2024-03-07T16:48:45;24.40;;;14.77;;
948;SDS011;461;51.436;7.312;2024-03-07T16:51:14;21.27;;;12.20;;
948;SDS011;461;51.436;7.312;2024-03-07T16:53:40;27.23;;;14.47;;
948;SDS011;461;51.436;7.312;2024-03-07T16:56:22;20.47;;;12.27;;
948;SDS011;461;51.436;7.312;2024-03-07T16:58:59;22.03;;;12.50;;
948;SDS011;461;51.436;7.312;2024-03-07T17:01:38;25.00;;;13.50;;
948;SDS011;461;51.436;7.312;2024-03-07T17:04:12;22.60;;;14.20;;
948;SDS011;461;51.436;7.312;2024-03-07T17:06:49;20.40;;;13.63;;
948;SDS011;461;51.436;7.312;2024-03-07T17:09:17;26.57;;;14.13;;
948;SDS011;461;51.436;7.312;2024-03-07T17:11:44;22.90;;;14.77;;
948;SDS011;461;51.436;7.312;2024-03-07T17:17:51;21.90;;;13.87;;
948;SDS011;461;51.436;7.312;2024-03-07T17:20:24;23.33;;;13.83;;
948;SDS011;461;51.436;7.312;2024-03-07T17:22:54;22.40;;;13.90;;
948;SDS011;461;51.436;7.312;2024-03-07T17:25:24;21.50;;;13.30;;
948;SDS011;461;51.436;7.312;2024-03-07T17:27:54;23.30;;;13.80;;
948;SDS011;461;51.436;7.312;2024-03-07T17:30:25;27.07;;;14.67;;
948;SDS011;461;51.436;7.312;2024-03-07T17:36:49;28.37;;;15.10;;
948;SDS011;461;51.436;7.312;2024-03-07T17:41:48;25.10;;;15.00;;
948;SDS011;461;51.436;7.312;2024-03-07T17:46:51;29.07;;;15.70;;